Terminal Aerodrome Forecast
Issued by NWS

Current Version | Previous Version | Text Only | Print | Product List | Glossary On
Versions: 1 2 3 4 5 6 7 8 9 10 11 12 13 14
000 FTUS42 KRAH 272329 TAFINT TAF KINT 272329Z 2800/2824 17006KT P6SM SCT045 FM280300 19002KT P6SM FEW250 FM281500 13005KT P6SM SCT035 BKN200=

USA.gov is the U.S. government's official web portal to all federal, state and local government web resources and services.